Observation data for Amherst on 02/14/2020      Previous  Date  Next       Current Mesonet Observations  Soil Data  Daily Summary Page  Observations in Plain Language
KAMH 140600Z 13016KT M02/M03 A3024 RMK A01 T10231034  RH  093%=      5-min Rain = 0
KAMH 140605Z 12015G20KT M02/M03 A3024 RMK A01 T10221033  RH  093%=      5-min Rain = 0
KAMH 140610Z 12014G19KT M02/M03 A3025 RMK A01 T10231033  RH  094%=      5-min Rain = 0
KAMH 140615Z 12014KT M02/M03 A3025 RMK A01 T10231032  RH  094%=      5-min Rain = 0
KAMH 140620Z 13015KT M02/M03 A3025 RMK A01 T10231032  RH  094%=      5-min Rain = 0
KAMH 140625Z 13013G18KT M02/M03 A3025 RMK A01 T10241033  RH  094%=      5-min Rain = 0
KAMH 140630Z 12014KT M02/M03 A3025 RMK A01 T10231032  RH  094%=      5-min Rain = 0
KAMH 140635Z 12012G17KT M02/M03 A3025 RMK A01 T10231032  RH  095%=      5-min Rain = 0
KAMH 140640Z 13013KT M02/M03 A3025 RMK A01 T10231031  RH  095%=      5-min Rain = 0
KAMH 140645Z 14012KT M02/M03 A3025 RMK A01 T10221030  RH  095%=      5-min Rain = 0
KAMH 140650Z 13014KT M02/M03 A3025 RMK A01 T10221031  RH  094%=      5-min Rain = 0
KAMH 140655Z 14013G18KT M02/M03 A3025 RMK A01 T10231033  RH  094%=      5-min Rain = 0
KAMH 140700Z 14012KT M02/M03 A3025 RMK A01 T10231033  RH  093%=      5-min Rain = 0
KAMH 140705Z 14012KT M02/M03 A3026 RMK A01 T10231033  RH  093%=      5-min Rain = 0
KAMH 140710Z 14014KT M02/M03 A3025 RMK A01 T10231034  RH  093%=      5-min Rain = 0
KAMH 140715Z 14013KT M02/M04 A3025 RMK A01 T10241035  RH  093%=      5-min Rain = 0
KAMH 140720Z 14012KT M02/M04 A3026 RMK A01 T10241035  RH  093%=      5-min Rain = 0
KAMH 140725Z 14012KT M03/M04 A3026 RMK A01 T10251035  RH  093%=      5-min Rain = 0
KAMH 140730Z 14011KT M03/M03 A3026 RMK A01 T10251034  RH  094%=      5-min Rain = 0
KAMH 140735Z 14013G18KT M03/M04 A3026 RMK A01 T10251035  RH  093%=      5-min Rain = 0
KAMH 140740Z 14015KT M03/M04 A3026 RMK A01 T10261037  RH  093%=      5-min Rain = 0
KAMH 140745Z 14014KT M03/M04 A3026 RMK A01 T10271039  RH  092%=      5-min Rain = 0
KAMH 140750Z 14014KT M03/M04 A3026 RMK A01 T10281040  RH  092%=      5-min Rain = 0
KAMH 140755Z 13014KT M03/M04 A3026 RMK A01 T10281040  RH  092%=      5-min Rain = 0
KAMH 140800Z 14013KT M03/M04 A3026 RMK A01 T10281040  RH  092%=      5-min Rain = 0
KAMH 140805Z 14012G17KT M03/M04 A3027 RMK A01 T10291041  RH  092%=      5-min Rain = 0
KAMH 140810Z 14012KT M03/M04 A3027 RMK A01 T10291042  RH  091%=      5-min Rain = 0
KAMH 140815Z 13012KT M03/M04 A3026 RMK A01 T10291043  RH  091%=      5-min Rain = 0
KAMH 140820Z 13013KT M03/M04 A3026 RMK A01 T10301044  RH  090%=      5-min Rain = 0
KAMH 140825Z 13012KT M03/M05 A3026 RMK A01 T10311045  RH  090%=      5-min Rain = 0
KAMH 140830Z 13011KT M03/M05 A3026 RMK A01 T10311045  RH  090%=      5-min Rain = 0
KAMH 140835Z 14009KT M03/M05 A3026 RMK A01 T10311045  RH  090%=      5-min Rain = 0
KAMH 140840Z 14011KT M03/M05 A3026 RMK A01 T10311045  RH  090%=      5-min Rain = 0
KAMH 140845Z 13011KT M03/M05 A3026 RMK A01 T10321047  RH  090%=      5-min Rain = 0
KAMH 140850Z 13010KT M03/M05 A3027 RMK A01 T10321048  RH  090%=      5-min Rain = 0
KAMH 140855Z 13010KT M03/M05 A3027 RMK A01 T10331047  RH  090%=      5-min Rain = 0
KAMH 140900Z 13009KT M03/M05 A3027 RMK A01 T10331049  RH  090%=      5-min Rain = 0
KAMH 140905Z 13009KT M03/M05 A3027 RMK A01 T10341049  RH  089%=      5-min Rain = 0
KAMH 140910Z 13010KT M03/M05 A3027 RMK A01 T10341050  RH  089%=      5-min Rain = 0
KAMH 140915Z 13009KT M04/M05 A3027 RMK A01 T10351050  RH  090%=      5-min Rain = 0
KAMH 140920Z 14009KT M04/M05 A3027 RMK A01 T10351050  RH  090%=      5-min Rain = 0
KAMH 140925Z 14010KT M04/M05 A3027 RMK A01 T10351050  RH  090%=      5-min Rain = 0
KAMH 140930Z 14009KT M04/M05 A3027 RMK A01 T10351050  RH  090%=      5-min Rain = 0
KAMH 140935Z 14009KT M04/M05 A3026 RMK A01 T10351050  RH  090%=      5-min Rain = 0
KAMH 140940Z 14011KT M04/M05 A3026 RMK A01 T10351049  RH  090%=      5-min Rain = 0
KAMH 140945Z 14010G15KT M04/M05 A3026 RMK A01 T10351049  RH  090%=      5-min Rain = 0
KAMH 140950Z 14013KT M04/M05 A3026 RMK A01 T10351049  RH  091%=      5-min Rain = 0
KAMH 140955Z 14013KT M04/M05 A3026 RMK A01 T10351048  RH  091%=      5-min Rain = 0
KAMH 141000Z 14011KT M04/M05 A3026 RMK A01 T10351048  RH  091%=      5-min Rain = 0
KAMH 141005Z 14010G15KT M03/M05 A3026 RMK A01 T10341047  RH  091%=      5-min Rain = 0
KAMH 141010Z 14010G15KT M03/M05 A3026 RMK A01 T10341048  RH  091%=      5-min Rain = 0
KAMH 141015Z 14010G15KT M03/M05 A3026 RMK A01 T10341048  RH  091%=      5-min Rain = 0
KAMH 141020Z 14010KT M04/M05 A3026 RMK A01 T10351048  RH  091%=      5-min Rain = 0
KAMH 141025Z 15013KT M04/M05 A3026 RMK A01 T10351047  RH  091%=      5-min Rain = 0
KAMH 141030Z 15014KT M04/M05 A3026 RMK A01 T10361047  RH  092%=      5-min Rain = 0
KAMH 141035Z 15013KT M04/M05 A3026 RMK A01 T10371047  RH  093%=      5-min Rain = 0
KAMH 141040Z 15014KT M04/M05 A3026 RMK A01 T10371046  RH  094%=      5-min Rain = 0
KAMH 141045Z 15012KT M04/M05 A3026 RMK A01 T10371046  RH  094%=      5-min Rain = 0
KAMH 141050Z 15011KT M04/M05 A3026 RMK A01 T10371045  RH  094%=      5-min Rain = 0
KAMH 141055Z 15014KT M04/M05 A3025 RMK A01 T10371045  RH  094%=      5-min Rain = 0
KAMH 141100Z 15010KT M04/M05 A3026 RMK A01 T10371045  RH  095%=      5-min Rain = 0
KAMH 141105Z 15011KT M04/M04 A3025 RMK A01 T10371044  RH  095%=      5-min Rain = 0
KAMH 141110Z 14010G16KT M04/M04 A3025 RMK A01 T10371044  RH  096%=      5-min Rain = 0
KAMH 141115Z 15010KT M04/M04 A3025 RMK A01 T10371042  RH  096%=      5-min Rain = 0
KAMH 141120Z 15010KT M04/M04 A3025 RMK A01 T10371042  RH  096%=      5-min Rain = 0
KAMH 141125Z 14011KT M04/M04 A3025 RMK A01 T10371042  RH  096%=      5-min Rain = 0
KAMH 141130Z 14011KT M04/M04 A3025 RMK A01 T10371042  RH  097%=      5-min Rain = 0
KAMH 141135Z 15010KT M04/M04 A3025 RMK A01 T10371042  RH  097%=      5-min Rain = 0
KAMH 141140Z 14009G14KT M04/M04 A3025 RMK A01 T10371041  RH  097%=      5-min Rain = 0
KAMH 141145Z 15011KT M04/M04 A3025 RMK A01 T10371041  RH  097%=      5-min Rain = 0
KAMH 141150Z 15012KT M04/M04 A3025 RMK A01 T10371041  RH  097%=      5-min Rain = 0
KAMH 141155Z 14011KT M04/M04 A3025 RMK A01 T10371041  RH  097%=      5-min Rain = 0
KAMH 141200Z 15010KT M04/M04 A3026 RMK A01 T10361040  RH  098%=      5-min Rain = 0
KAMH 141205Z 15010KT M04/M04 A3026 RMK A01 T10351039  RH  098%=      5-min Rain = 0
KAMH 141210Z 15009KT M04/M04 A3026 RMK A01 T10351039  RH  098%=      5-min Rain = 0
KAMH 141215Z 15009KT M04/M04 A3026 RMK A01 T10351038  RH  098%=      5-min Rain = 0
KAMH 141220Z 14009KT M04/M04 A3026 RMK A01 T10351038  RH  098%=      5-min Rain = 0
KAMH 141225Z 14010KT M04/M04 A3026 RMK A01 T10361040  RH  098%=      5-min Rain = 0
KAMH 141230Z 14010KT M04/M04 A3026 RMK A01 T10371041  RH  098%=      5-min Rain = 0
KAMH 141235Z 14010KT M04/M04 A3026 RMK A01 T10371041  RH  098%=      5-min Rain = 0
KAMH 141240Z 15010KT M04/M04 A3026 RMK A01 T10371040  RH  098%=      5-min Rain = 0
KAMH 141245Z 14009KT M04/M04 A3026 RMK A01 T10371040  RH  098%=      5-min Rain = 0
KAMH 141250Z 14009KT M04/M04 A3026 RMK A01 T10371040  RH  098%=      5-min Rain = 0
KAMH 141255Z 15010KT M04/M04 A3026 RMK A01 T10361040  RH  098%=      5-min Rain = 0
KAMH 141300Z 15010KT M04/M04 A3026 RMK A01 T10351039  RH  098%=      5-min Rain = 0
KAMH 141305Z 15010KT M04/M04 A3026 RMK A01 T10351039  RH  098%=      5-min Rain = 0
KAMH 141310Z 15010KT M04/M04 A3026 RMK A01 T10361040  RH  098%=      5-min Rain = 0
KAMH 141315Z 15011KT M04/M04 A3026 RMK A01 T10351039  RH  098%=      5-min Rain = 0
KAMH 141320Z 15010KT M04/M04 A3026 RMK A01 T10351038  RH  098%=      5-min Rain = 0
KAMH 141325Z 15010KT M03/M04 A3026 RMK A01 T10341038  RH  098%=      5-min Rain = 0
KAMH 141330Z 16011KT M03/M04 A3027 RMK A01 T10341037  RH  098%=      5-min Rain = 0
KAMH 141335Z 16010KT M03/M04 A3027 RMK A01 T10331036  RH  098%=      5-min Rain = 0
KAMH 141340Z 16009KT M03/M04 A3027 RMK A01 T10321036  RH  098%=      5-min Rain = 0
KAMH 141345Z 16009KT M03/M04 A3027 RMK A01 T10311035  RH  098%=      5-min Rain = 0
KAMH 141350Z 17009G14KT M03/M03 A3027 RMK A01 T10301033  RH  098%=      5-min Rain = 0
KAMH 141355Z 18013KT M03/M03 A3027 RMK A01 T10271030  RH  098%=      5-min Rain = 0
KAMH 141400Z 18014KT M03/M03 A3027 RMK A01 T10261029  RH  098%=      5-min Rain = 0
KAMH 141405Z 18013KT M03/M03 A3027 RMK A01 T10251029  RH  098%=      5-min Rain = 0
KAMH 141410Z 18012KT M03/M03 A3027 RMK A01 T10251028  RH  098%=      5-min Rain = 0
KAMH 141415Z 18012KT M02/M03 A3027 RMK A01 T10241028  RH  098%=      5-min Rain = 0
KAMH 141420Z 18012KT M02/M03 A3027 RMK A01 T10241027  RH  098%=      5-min Rain = 0
KAMH 141425Z 17012KT M02/M03 A3027 RMK A01 T10241027  RH  098%=      5-min Rain = 0
KAMH 141430Z 17011KT M02/M03 A3027 RMK A01 T10231027  RH  098%=      5-min Rain = 0
KAMH 141435Z 18012KT M02/M03 A3027 RMK A01 T10231026  RH  098%=      5-min Rain = 0
KAMH 141440Z 18012KT M02/M03 A3027 RMK A01 T10221025  RH  098%=      5-min Rain = 0
KAMH 141445Z 18011KT M02/M02 A3028 RMK A01 T10211024  RH  098%=      5-min Rain = 0
KAMH 141450Z 17012KT M02/M02 A3027 RMK A01 T10211024  RH  098%=      5-min Rain = 0
KAMH 141455Z 17012KT M02/M03 A3027 RMK A01 T10211025  RH  098%=      5-min Rain = 0
KAMH 141500Z 17011KT M02/M02 A3028 RMK A01 T10211024  RH  099%=      5-min Rain = 0
KAMH 141505Z 17012KT M02/M02 A3027 RMK A01 T10211024  RH  099%=      5-min Rain = 0
KAMH 141510Z 18012KT M02/M02 A3027 RMK A01 T10201023  RH  099%=      5-min Rain = 0
KAMH 141515Z 18012KT M02/M02 A3027 RMK A01 T10191022  RH  099%=      5-min Rain = 0
KAMH 141520Z 17011KT M02/M02 A3028 RMK A01 T10181021  RH  099%=      5-min Rain = 0
KAMH 141525Z 17011KT M02/M02 A3028 RMK A01 T10181021  RH  099%=      5-min Rain = 0
KAMH 141530Z 17011KT M02/M02 A3027 RMK A01 T10181021  RH  099%=      5-min Rain = 0
KAMH 141535Z 17011KT M02/M02 A3027 RMK A01 T10171020  RH  099%=      5-min Rain = 0
KAMH 141540Z 17011KT M02/M02 A3027 RMK A01 T10161019  RH  099%=      5-min Rain = 0
KAMH 141545Z 18012KT M02/M02 A3028 RMK A01 T10161019  RH  099%=      5-min Rain = 0
KAMH 141550Z 18012KT M02/M02 A3028 RMK A01 T10151018  RH  099%=      5-min Rain = 0
KAMH 141555Z 18012KT M02/M02 A3027 RMK A01 T10151018  RH  099%=      5-min Rain = 0
KAMH 141600Z 18011KT M01/M02 A3027 RMK A01 T10141017  RH  099%=      5-min Rain = 0
KAMH 141605Z 18010KT M01/M02 A3027 RMK A01 T10131016  RH  099%=      5-min Rain = 0
KAMH 141610Z 18013KT M01/M02 A3027 RMK A01 T10141017  RH  099%=      5-min Rain = 0
KAMH 141615Z 18013KT M01/M02 A3027 RMK A01 T10141017  RH  099%=      5-min Rain = 0
KAMH 141620Z 18013KT M01/M02 A3027 RMK A01 T10141017  RH  099%=      5-min Rain = 0
KAMH 141625Z 18012KT M01/M02 A3027 RMK A01 T10131016  RH  099%=      5-min Rain = 0
KAMH 141630Z 18012KT M01/M02 A3027 RMK A01 T10131016  RH  099%=      5-min Rain = 0
KAMH 141635Z 18011KT M01/M02 A3027 RMK A01 T10121015  RH  099%=      5-min Rain = 0
KAMH 141640Z 18012KT M01/M02 A3027 RMK A01 T10131015  RH  099%=      5-min Rain = 0
KAMH 141645Z 18011KT M01/M02 A3027 RMK A01 T10121015  RH  099%=      5-min Rain = 0
KAMH 141650Z 18011KT M01/M02 A3027 RMK A01 T10131016  RH  099%=      5-min Rain = 0
KAMH 141655Z 18013KT M01/M01 A3027 RMK A01 T10111014  RH  099%=      5-min Rain = 0
KAMH 141700Z 19011G16KT M01/M01 A3027 RMK A01 T10111014  RH  099%=      5-min Rain = 0
KAMH 141705Z 18013KT M01/M01 A3027 RMK A01 T10111014  RH  099%=      5-min Rain = 0
KAMH 141710Z 19012KT M01/M01 A3026 RMK A01 T10101014  RH  099%=      5-min Rain = 0
KAMH 141715Z 18013KT M01/M01 A3026 RMK A01 T10101014  RH  099%=      5-min Rain = 0
KAMH 141720Z 18012KT M01/M01 A3026 RMK A01 T10101013  RH  098%=      5-min Rain = 0
KAMH 141725Z 18012KT M01/M01 A3026 RMK A01 T10101013  RH  098%=      5-min Rain = 0
KAMH 141730Z 20010KT M01/M01 A3026 RMK A01 T10081012  RH  098%=      5-min Rain = 0
KAMH 141735Z 19010KT M01/M01 A3026 RMK A01 T10081012  RH  098%=      5-min Rain = 0
KAMH 141740Z 18012KT M01/M01 A3025 RMK A01 T10071011  RH  098%=      5-min Rain = 0
KAMH 141745Z 19012KT M01/M01 A3025 RMK A01 T10071011  RH  098%=      5-min Rain = 0
KAMH 141750Z 19011KT M01/M01 A3025 RMK A01 T10051010  RH  097%=      5-min Rain = 0
KAMH 141755Z 18012KT M01/M01 A3025 RMK A01 T10051010  RH  097%=      5-min Rain = 0
KAMH 141800Z 18013KT M00/M01 A3025 RMK A01 T10041010  RH  097%=      5-min Rain = 0
KAMH 141805Z 19011KT M00/M01 A3025 RMK A01 T10041010  RH  096%=      5-min Rain = 0
KAMH 141810Z 19012KT M00/M01 A3025 RMK A01 T10031010  RH  096%=      5-min Rain = 0
KAMH 141815Z 18012KT M00/M01 A3025 RMK A01 T10031011  RH  096%=      5-min Rain = 0
KAMH 141820Z 18012KT M00/M01 A3024 RMK A01 T10021009  RH  096%=      5-min Rain = 0
KAMH 141825Z 19011G16KT M00/M01 A3024 RMK A01 T10011008  RH  095%=      5-min Rain = 0
KAMH 141830Z 19011KT M00/M01 A3024 RMK A01 T10011009  RH  095%=      5-min Rain = 0
KAMH 141835Z 19012KT 00/M01 A3024 RMK A01 T00011008  RH  095%=      5-min Rain = 0
KAMH 141840Z 19012KT 00/M01 A3024 RMK A01 T00021008  RH  094%=      5-min Rain = 0
KAMH 141845Z 19011KT 00/M01 A3024 RMK A01 T00031007  RH  094%=      5-min Rain = 0
KAMH 141850Z 20010KT 00/M01 A3023 RMK A01 T00031007  RH  094%=      5-min Rain = 0
KAMH 141855Z 20012KT 01/M01 A3023 RMK A01 T00051006  RH  093%=      5-min Rain = 0
KAMH 141900Z 20012KT 01/M01 A3022 RMK A01 T00061007  RH  092%=      5-min Rain = 0
KAMH 141905Z 20011KT 01/M01 A3022 RMK A01 T00071006  RH  092%=      5-min Rain = 0
KAMH 141910Z 19011KT 01/M01 A3022 RMK A01 T00071005  RH  092%=      5-min Rain = 0
KAMH 141915Z 19012G18KT 01/M01 A3022 RMK A01 T00081005  RH  092%=      5-min Rain = 0
KAMH 141920Z 19012KT 01/M01 A3021 RMK A01 T00081006  RH  091%=      5-min Rain = 0
KAMH 141925Z 20012KT 01/M00 A3021 RMK A01 T00101004  RH  091%=      5-min Rain = 0
KAMH 141930Z 20012KT 01/M01 A3021 RMK A01 T00101006  RH  090%=      5-min Rain = 0
KAMH 141935Z 20010G15KT 01/M00 A3021 RMK A01 T00121004  RH  090%=      5-min Rain = 0
KAMH 141940Z 19012KT 01/M01 A302 RMK A01 T00131005  RH  089%=      5-min Rain = 0
KAMH 141945Z 20011G16KT 01/M00 A302 RMK A01 T00141004  RH  089%=      5-min Rain = 0
KAMH 141950Z 19011KT 02/M00 A302 RMK A01 T00161003  RH  088%=      5-min Rain = 0
KAMH 141955Z 19014KT 01/M01 A3019 RMK A01 T00141005  RH  088%=      5-min Rain = 0
KAMH 142000Z 20012G18KT 01/M00 A3019 RMK A01 T00141004  RH  089%=      5-min Rain = 0
KAMH 142005Z 19012KT 02/M00 A3018 RMK A01 T00151004  RH  088%=      5-min Rain = 0
KAMH 142010Z 20013G18KT 02/M00 A3018 RMK A01 T00171002  RH  088%=      5-min Rain = 0
KAMH 142015Z 18012G18KT 02/M00 A3018 RMK A01 T00171002  RH  088%=      5-min Rain = 0
KAMH 142020Z 19014KT 02/M00 A3017 RMK A01 T00171003  RH  088%=      5-min Rain = 0
KAMH 142025Z 18013KT 02/M00 A3017 RMK A01 T00161003  RH  088%=      5-min Rain = 0
KAMH 142030Z 18014KT 02/M00 A3017 RMK A01 T00181001  RH  088%=      5-min Rain = 0
KAMH 142035Z 18013KT 02/M00 A3016 RMK A01 T00181001  RH  088%=      5-min Rain = 0
KAMH 142040Z 19013KT 02/M00 A3016 RMK A01 T00191001  RH  088%=      5-min Rain = 0
KAMH 142045Z 18013G18KT 02/M00 A3016 RMK A01 T00181001  RH  088%=      5-min Rain = 0
KAMH 142050Z 19011KT 02/00 A3016 RMK A01 T00200000  RH  088%=      5-min Rain = 0
KAMH 142055Z 18014KT 02/M00 A3016 RMK A01 T00191001  RH  087%=      5-min Rain = 0
KAMH 142100Z 18014KT 02/M00 A3016 RMK A01 T00181001  RH  088%=      5-min Rain = 0
KAMH 142105Z 19013KT 02/00 A3015 RMK A01 T00190000  RH  088%=      5-min Rain = 0
KAMH 142110Z 19012KT 02/00 A3015 RMK A01 T00200001  RH  088%=      5-min Rain = 0
KAMH 142115Z 18012KT 02/00 A3015 RMK A01 T00230003  RH  088%=      5-min Rain = 0
KAMH 142120Z 18014KT 02/00 A3015 RMK A01 T00210001  RH  088%=      5-min Rain = 0
KAMH 142125Z 18014KT 02/00 A3015 RMK A01 T00190000  RH  088%=      5-min Rain = 0
KAMH 142130Z 19014G20KT 02/00 A3015 RMK A01 T00190000  RH  088%=      5-min Rain = 0
KAMH 142135Z 19013KT 02/00 A3015 RMK A01 T002000-0  RH  088%=      5-min Rain = 0
KAMH 142140Z 18013KT 02/00 A3015 RMK A01 T00210001  RH  088%=      5-min Rain = 0
KAMH 142145Z 18013KT 02/00 A3015 RMK A01 T00220002  RH  088%=      5-min Rain = 0
KAMH 142150Z 17013KT 02/00 A3014 RMK A01 T00210000  RH  087%=      5-min Rain = 0
KAMH 142155Z 18014KT 02/00 A3014 RMK A01 T00220001  RH  088%=      5-min Rain = 0
KAMH 142200Z 18013KT 02/00 A3014 RMK A01 T00220002  RH  087%=      5-min Rain = 0
KAMH 142205Z 18014KT 02/00 A3014 RMK A01 T00230002  RH  087%=      5-min Rain = 0
KAMH 142210Z 19013KT 02/00 A3014 RMK A01 T00230002  RH  087%=      5-min Rain = 0
KAMH 142215Z 17013KT 02/00 A3014 RMK A01 T00240003  RH  087%=      5-min Rain = 0
KAMH 142220Z 18014KT 02/00 A3014 RMK A01 T00220001  RH  087%=      5-min Rain = 0
KAMH 142225Z 18013KT 02/00 A3013 RMK A01 T00230003  RH  087%=      5-min Rain = 0
KAMH 142230Z 17013KT 02/00 A3013 RMK A01 T00230003  RH  087%=      5-min Rain = 0
KAMH 142235Z 18014KT 02/00 A3013 RMK A01 T00240003  RH  087%=      5-min Rain = 0
KAMH 142240Z 18013KT 02/00 A3013 RMK A01 T00240003  RH  087%=      5-min Rain = 0
KAMH 142245Z 18013KT 03/01 A3013 RMK A01 T00270005  RH  087%=      5-min Rain = 0
KAMH 142250Z 18014KT 03/00 A3013 RMK A01 T00250003  RH  086%=      5-min Rain = 0
KAMH 142255Z 18015KT 03/00 A3012 RMK A01 T00250003  RH  087%=      5-min Rain = 0
KAMH 142300Z 19014KT 02/00 A3012 RMK A01 T00240002  RH  086%=      5-min Rain = 0
KAMH 142305Z 17014G19KT 02/00 A3012 RMK A01 T00240002  RH  087%=      5-min Rain = 0
KAMH 142310Z 18013KT 03/00 A3012 RMK A01 T00250003  RH  087%=      5-min Rain = 0
KAMH 142315Z 18014KT 02/00 A3012 RMK A01 T00240002  RH  086%=      5-min Rain = 0
KAMH 142320Z 19012KT 02/00 A3012 RMK A01 T00240002  RH  086%=      5-min Rain = 0
KAMH 142325Z 17014KT 02/00 A3012 RMK A01 T00230001  RH  086%=      5-min Rain = 0
KAMH 142330Z 18015KT 02/00 A3012 RMK A01 T00210000  RH  087%=      5-min Rain = 0
KAMH 142335Z 18014KT 02/00 A3012 RMK A01 T00220002  RH  087%=      5-min Rain = 0
KAMH 142340Z 17014KT 02/00 A3012 RMK A01 T00220001  RH  087%=      5-min Rain = 0
KAMH 142345Z 17014KT 02/00 A3012 RMK A01 T00210001  RH  088%=      5-min Rain = 0
KAMH 142350Z 18015KT 02/00 A3012 RMK A01 T00210000  RH  087%=      5-min Rain = 0
KAMH 142355Z 18015KT 02/00 A3012 RMK A01 T00210000  RH  087%=      5-min Rain = 0
KAMH 150000Z 17012KT 02/00 A3012 RMK A01 T00210000  RH  087%=      5-min Rain = 0
KAMH 150005Z 17012KT 02/00 A3012 RMK A01 T00210001  RH  088%=      5-min Rain = 0
KAMH 150010Z 17011KT 02/00 A3013 RMK A01 T00220002  RH  088%=      5-min Rain = 0
KAMH 150015Z 17012KT 02/00 A3012 RMK A01 T00220002  RH  088%=      5-min Rain = 0
KAMH 150020Z 17014KT 02/00 A3012 RMK A01 T00220001  RH  087%=      5-min Rain = 0
KAMH 150025Z 17012KT 02/00 A3012 RMK A01 T00220001  RH  087%=      5-min Rain = 0
KAMH 150030Z 17013KT 02/00 A3013 RMK A01 T00220001  RH  087%=      5-min Rain = 0
KAMH 150035Z 17012KT 02/00 A3012 RMK A01 T00200000  RH  088%=      5-min Rain = 0
KAMH 150040Z 17013KT 02/00 A3012 RMK A01 T00200000  RH  088%=      5-min Rain = 0
KAMH 150045Z 17014KT 02/00 A3012 RMK A01 T00200001  RH  088%=      5-min Rain = 0
KAMH 150050Z 16013KT 02/00 A3012 RMK A01 T00200001  RH  088%=      5-min Rain = 0
KAMH 150055Z 16014KT 02/00 A3012 RMK A01 T00200001  RH  088%=      5-min Rain = 0
KAMH 150100Z 17015KT 02/00 A3012 RMK A01 T00180000  RH  089%=      5-min Rain = 0
KAMH 150105Z 17014G20KT 02/00 A3013 RMK A01 T00170000  RH  089%=      5-min Rain = 0
KAMH 150110Z 16016KT 02/00 A3013 RMK A01 T00170000  RH  090%=      5-min Rain = 0
KAMH 150115Z 16015KT 02/00 A3013 RMK A01 T001600-0  RH  090%=      5-min Rain = 0
KAMH 150120Z 17013KT 02/00 A3013 RMK A01 T001600-0  RH  090%=      5-min Rain = 0
KAMH 150125Z 16012KT 02/00 A3013 RMK A01 T00160000  RH  090%=      5-min Rain = 0
KAMH 150130Z 16013KT 02/00 A3013 RMK A01 T00160000  RH  090%=      5-min Rain = 0
KAMH 150135Z 16012KT 02/00 A3013 RMK A01 T00160000  RH  090%=      5-min Rain = 0
KAMH 150140Z 16011KT 02/00 A3013 RMK A01 T00160001  RH  091%=      5-min Rain = 0
KAMH 150145Z 16013KT 02/00 A3013 RMK A01 T00160001  RH  091%=      5-min Rain = 0
KAMH 150150Z 17014KT 02/00 A3013 RMK A01 T00160001  RH  091%=      5-min Rain = 0
KAMH 150155Z 16013G18KT 02/00 A3013 RMK A01 T00150001  RH  091%=      5-min Rain = 0
KAMH 150200Z 17011KT 02/00 A3013 RMK A01 T00150001  RH  092%=      5-min Rain = 0
KAMH 150205Z 17011KT 01/00 A3013 RMK A01 T00140001  RH  092%=      5-min Rain = 0
KAMH 150210Z 17012KT 02/00 A3013 RMK A01 T00150002  RH  092%=      5-min Rain = 0
KAMH 150215Z 18012KT 01/00 A3013 RMK A01 T00140001  RH  092%=      5-min Rain = 0
KAMH 150220Z 19012KT 01/M00 A3013 RMK A01 T00121001  RH  092%=      5-min Rain = 0
KAMH 150225Z 19010KT 01/M00 A3013 RMK A01 T00101002  RH  093%=      5-min Rain = 0
KAMH 150230Z 19010KT 01/M00 A3013 RMK A01 T00091003  RH  093%=      5-min Rain = 0
KAMH 150235Z 19009KT 01/M00 A3013 RMK A01 T00081003  RH  093%=      5-min Rain = 0
KAMH 150240Z 18009KT 01/M01 A3012 RMK A01 T00061005  RH  093%=      5-min Rain = 0
KAMH 150245Z 18008KT 00/M01 A3012 RMK A01 T00021009  RH  094%=      5-min Rain = 0
KAMH 150250Z 17008KT 00/M01 A3012 RMK A01 T00011009  RH  094%=      5-min Rain = 0
KAMH 150255Z 17007KT M00/M01 A3012 RMK A01 T10021011  RH  095%=      5-min Rain = 0
KAMH 150300Z 18007KT M00/M01 A3012 RMK A01 T10021010  RH  095%=      5-min Rain = 0
KAMH 150305Z 18005KT M00/M01 A3012 RMK A01 T10021010  RH  095%=      5-min Rain = 0
KAMH 150310Z 18004KT M00/M01 A3012 RMK A01 T10041012  RH  095%=      5-min Rain = 0
KAMH 150315Z 16005KT M01/M01 A3012 RMK A01 T10051013  RH  095%=      5-min Rain = 0
KAMH 150320Z 16005KT M01/M02 A3012 RMK A01 T10071015  RH  095%=      5-min Rain = 0
KAMH 150325Z 16003KT M01/M02 A3013 RMK A01 T10081015  RH  095%=      5-min Rain = 0
KAMH 150330Z 15002KT M01/M02 A3013 RMK A01 T10081015  RH  096%=      5-min Rain = 0
KAMH 150335Z 14003KT M01/M02 A3013 RMK A01 T10081015  RH  096%=      5-min Rain = 0
KAMH 150340Z 12003KT M01/M02 A3013 RMK A01 T10101017  RH  096%=      5-min Rain = 0
KAMH 150345Z 13003KT M02/M02 A3013 RMK A01 T10151022  RH  096%=      5-min Rain = 0
KAMH 150350Z 15002KT M02/M02 A3013 RMK A01 T10161022  RH  096%=      5-min Rain = 0
KAMH 150355Z 17004KT M01/M02 A3013 RMK A01 T10101016  RH  097%=      5-min Rain = 0
KAMH 150400Z 18005KT M01/M02 A3013 RMK A01 T10091015  RH  097%=      5-min Rain = 0
KAMH 150405Z 19007KT M01/M01 A3012 RMK A01 T10071012  RH  097%=      5-min Rain = 0
KAMH 150410Z 18007KT M01/M01 A3012 RMK A01 T10051010  RH  097%=      5-min Rain = 0
KAMH 150415Z 18007KT M01/M01 A3012 RMK A01 T10061011  RH  097%=      5-min Rain = 0
KAMH 150420Z 17005KT M01/M01 A3012 RMK A01 T10071013  RH  097%=      5-min Rain = 0
KAMH 150425Z 18005KT M01/M02 A3012 RMK A01 T10091015  RH  097%=      5-min Rain = 0
KAMH 150430Z 18005KT M01/M02 A3012 RMK A01 T10111016  RH  097%=      5-min Rain = 0
KAMH 150435Z 17005KT M01/M02 A3012 RMK A01 T10131019  RH  097%=      5-min Rain = 0
KAMH 150440Z 16005KT M02/M02 A3012 RMK A01 T10161022  RH  097%=      5-min Rain = 0
KAMH 150445Z 17005KT M02/M02 A3012 RMK A01 T10181024  RH  097%=      5-min Rain = 0
KAMH 150450Z 17005KT M02/M02 A3011 RMK A01 T10181024  RH  097%=      5-min Rain = 0
KAMH 150455Z 17005KT M02/M02 A3011 RMK A01 T10171022  RH  097%=      5-min Rain = 0
KAMH 150500Z 17005KT M02/M02 A3011 RMK A01 T10151019  RH  097%=      5-min Rain = 0
KAMH 150505Z 16005KT M01/M02 A3011 RMK A01 T10141019  RH  097%=      5-min Rain = 0
KAMH 150510Z 16005KT M02/M02 A3011 RMK A01 T10161021  RH  097%=      5-min Rain = 0
KAMH 150515Z 15005KT M02/M02 A3011 RMK A01 T10161021  RH  097%=      5-min Rain = 0
KAMH 150520Z 16005KT M02/M02 A3011 RMK A01 T10151020  RH  097%=      5-min Rain = 0
KAMH 150525Z 17005KT M01/M02 A3011 RMK A01 T10131018  RH  097%=      5-min Rain = 0
KAMH 150530Z 17006KT M01/M02 A301 RMK A01 T10121017  RH  097%=      5-min Rain = 0
KAMH 150535Z 17007KT M01/M02 A301 RMK A01 T10121017  RH  097%=      5-min Rain = 0
KAMH 150540Z 17008KT M01/M02 A301 RMK A01 T10121017  RH  097%=      5-min Rain = 0
KAMH 150545Z 18006KT M01/M02 A301 RMK A01 T10101015  RH  098%=      5-min Rain = 0
KAMH 150550Z 17006KT M01/M01 A301 RMK A01 T10091013  RH  098%=      5-min Rain = 0
KAMH 150555Z 18005KT M01/M01 A3009 RMK A01 T10081013  RH  097%=      5-min Rain = 0

Page generated in 0.0367 seconds.